createdAt,value
2019-05-23T00:01:22.943Z,99807.91
2019-05-23T00:04:20.900Z,99812.50
2019-05-23T00:07:16.339Z,99816.03
2019-05-23T00:10:08.586Z,99809.06
2019-05-23T00:12:58.572Z,99813.33
2019-05-23T00:15:42.552Z,99813.33
2019-05-23T00:18:14.483Z,99813.92
2019-05-23T00:20:47.281Z,99818.51
2019-05-23T00:23:20.243Z,99818.51
2019-05-23T00:25:53.016Z,99817.19
2019-05-23T00:28:25.200Z,99818.77
2019-05-23T00:31:01.440Z,99814.25
2019-05-23T00:33:35.381Z,99815.97
2019-05-23T00:36:07.213Z,99818.90
2019-05-23T00:38:40.495Z,99815.53
2019-05-23T00:41:14.021Z,99816.85
2019-05-23T00:43:47.401Z,99813.39
2019-05-23T00:46:19.969Z,99817.34
2019-05-23T00:48:53.293Z,99822.06
2019-05-23T00:51:27.133Z,99823.64
2019-05-23T00:53:59.839Z,99820.31
2019-05-23T00:56:31.693Z,99825.84
2019-05-23T00:59:04.365Z,99826.47
2019-05-23T01:01:37.937Z,99826.60
2019-05-23T01:04:12.148Z,99827.09
2019-05-23T01:06:44.525Z,99834.19
2019-05-23T01:09:18.853Z,99835.50
2019-05-23T01:11:52.597Z,99829.99
2019-05-23T01:14:25.437Z,99839.23
2019-05-23T01:16:59.285Z,99835.97
2019-05-23T01:19:32.736Z,99840.16
2019-05-23T01:22:08.281Z,99835.78
2019-05-23T01:24:43.513Z,99836.84
2019-05-23T01:27:15.843Z,99836.09
2019-05-23T01:29:50.516Z,99838.47
2019-05-23T01:32:31.595Z,99839.52
2019-05-23T01:35:05.174Z,99844.41
2019-05-23T01:37:36.943Z,99839.47
2019-05-23T01:40:08.986Z,99842.80
2019-05-23T01:42:42.595Z,99836.93
2019-05-23T01:45:18.083Z,99842.21
2019-05-23T01:47:50.476Z,99844.85
2019-05-23T01:50:26.823Z,99844.85
2019-05-23T01:52:59.249Z,99846.87
2019-05-23T01:55:31.766Z,99845.28
2019-05-23T01:58:04.207Z,99851.00
2019-05-23T02:00:36.511Z,99847.73
2019-05-23T02:03:10.047Z,99849.12
2019-05-23T02:05:44.412Z,99844.56
2019-05-23T02:08:17.615Z,99846.91
2019-05-23T02:10:49.827Z,99844.62
2019-05-23T02:13:21.789Z,99849.08
2019-05-23T02:15:53.713Z,99845.95
2019-05-23T02:18:28.426Z,99849.15
2019-05-23T02:21:01.155Z,99852.98
2019-05-23T02:23:34.441Z,99852.02
2019-05-23T02:26:07.291Z,99854.99
2019-05-23T02:28:40.082Z,99854.99
2019-05-23T02:31:12.581Z,99860.64
2019-05-23T02:33:45.311Z,99856.05
2019-05-23T02:36:17.938Z,99856.25
2019-05-23T02:39:16.161Z,99867.18
2019-05-23T02:41:59.341Z,99867.41
2019-05-23T02:44:33.323Z,99869.42
2019-05-23T02:47:17.244Z,99875.77
2019-05-23T02:49:51.985Z,99874.51
2019-05-23T02:52:50.946Z,99878.53
2019-05-23T02:55:32.089Z,99878.77
2019-05-23T02:58:22.762Z,99879.59
2019-05-23T03:01:17.667Z,99877.50
2019-05-23T03:03:51.697Z,99877.73
2019-05-23T03:06:25.153Z,99875.78
2019-05-23T03:08:59.333Z,99881.13
2019-05-23T03:11:47.379Z,99877.88
2019-05-23T03:14:20.385Z,99880.72
2019-05-23T03:16:56.383Z,99873.48
2019-05-23T03:19:42.919Z,99872.88
2019-05-23T03:22:42.960Z,99874.90
2019-05-23T03:26:04.222Z,99875.09
2019-05-23T03:28:42.661Z,99883.02
2019-05-23T03:31:33.320Z,99882.33
2019-05-23T03:34:07.706Z,99887.84
2019-05-23T03:36:41.101Z,99892.04
2019-05-23T03:39:15.139Z,99892.45
2019-05-23T03:41:48.421Z,99889.54
2019-05-23T03:44:20.543Z,99894.83
2019-05-23T03:46:53.861Z,99896.08
2019-05-23T03:49:27.999Z,99892.66
2019-05-23T03:52:01.904Z,99889.61
2019-05-23T03:54:35.641Z,99888.48
2019-05-23T03:57:09.262Z,99892.25
2019-05-23T03:59:42.495Z,99892.53
2019-05-23T04:02:17.005Z,99891.89
2019-05-23T04:04:49.060Z,99892.08
2019-05-23T04:07:21.862Z,99889.85
2019-05-23T04:09:53.991Z,99887.14
2019-05-23T04:12:26.094Z,99893.86
2019-05-23T04:14:57.831Z,99892.48
2019-05-23T04:17:30.338Z,99891.89
2019-05-23T04:20:02.666Z,99889.31
2019-05-23T04:22:34.823Z,99884.89
2019-05-23T04:25:07.718Z,99888.44
2019-05-23T04:27:39.511Z,99891.35
2019-05-23T04:30:12.874Z,99892.25
2019-05-23T04:32:45.118Z,99893.58
2019-05-23T04:35:17.235Z,99903.67
2019-05-23T04:37:49.407Z,99902.84
2019-05-23T04:40:22.060Z,99905.96
2019-05-23T04:42:54.067Z,99914.55
2019-05-23T04:45:28.067Z,99911.42
2019-05-23T04:48:00.763Z,99917.13
2019-05-23T04:50:33.002Z,99913.24
2019-05-23T04:53:07.149Z,99909.48
2019-05-23T04:55:39.819Z,99918.91
2019-05-23T04:58:12.105Z,99924.99
2019-05-23T05:00:44.413Z,99922.73
2019-05-23T05:03:19.621Z,99921.45
2019-05-23T05:05:51.656Z,99925.09
2019-05-23T05:08:26.895Z,99934.77
2019-05-23T05:10:59.344Z,99932.01
2019-05-23T05:13:32.058Z,99938.38
2019-05-23T05:16:06.825Z,99938.47
2019-05-23T05:18:38.891Z,99942.73
2019-05-23T05:21:11.361Z,99944.14
2019-05-23T05:23:43.773Z,99946.09
2019-05-23T05:26:23.409Z,99954.66
2019-05-23T05:28:55.869Z,99952.97
2019-05-23T05:31:27.908Z,99946.11
2019-05-23T05:33:59.820Z,99951.72
2019-05-23T05:36:32.139Z,99948.80
2019-05-23T05:39:05.288Z,99947.53
2019-05-23T05:41:38.075Z,99949.90
2019-05-23T05:44:11.787Z,99951.84
2019-05-23T05:46:43.941Z,99958.86
2019-05-23T05:49:15.737Z,99960.75
2019-05-23T05:51:47.489Z,99966.30
2019-05-23T05:54:19.565Z,99966.30
2019-05-23T05:56:51.538Z,99961.66
2019-05-23T05:59:23.589Z,99962.73
2019-05-23T06:01:56.656Z,99960.84
2019-05-23T06:04:28.684Z,99962.33
2019-05-23T06:07:16.830Z,99964.99
2019-05-23T06:09:50.472Z,99970.00
2019-05-23T06:12:23.577Z,99976.03
2019-05-23T06:14:55.496Z,99975.77
2019-05-23T06:17:28.140Z,99979.81
2019-05-23T06:20:00.040Z,99977.70
2019-05-23T06:22:33.526Z,99981.31
2019-05-23T06:25:07.581Z,99984.38
2019-05-23T06:27:43.081Z,99985.41
2019-05-23T06:30:19.409Z,99989.64
2019-05-23T06:32:51.400Z,99991.13
2019-05-23T06:35:23.969Z,99988.97
2019-05-23T06:37:56.745Z,99988.63
2019-05-23T06:40:30.132Z,99987.79
2019-05-23T06:43:02.311Z,99986.95
2019-05-23T06:45:34.296Z,99997.97
2019-05-23T06:48:08.407Z,99992.26
2019-05-23T06:50:41.892Z,99995.58
2019-05-23T06:53:14.870Z,100009.25
2019-05-23T06:55:47.010Z,100007.63
2019-05-23T06:58:18.866Z,100007.08
2019-05-23T07:00:51.497Z,100011.50
2019-05-23T07:03:40.541Z,100015.98
2019-05-23T07:05:59.677Z,100003.69
2019-05-23T07:08:33.494Z,100021.34
2019-05-23T07:11:06.049Z,100014.19
2019-05-23T07:13:39.493Z,100019.53
2019-05-23T07:16:11.861Z,100025.34
2019-05-23T07:18:45.584Z,100031.00
2019-05-23T07:21:19.101Z,100030.86
2019-05-23T07:23:50.880Z,100035.13
2019-05-23T07:26:23.113Z,100029.70
2019-05-23T07:28:55.801Z,100041.36
2019-05-23T07:31:27.663Z,100041.04
2019-05-23T07:34:02.401Z,100041.20
2019-05-23T07:36:33.410Z,100040.52
2019-05-23T07:39:11.333Z,100040.91
2019-05-23T07:41:42.600Z,100046.61
2019-05-23T07:44:15.550Z,100043.19
2019-05-23T07:46:47.919Z,100050.46
2019-05-23T07:49:20.938Z,100053.44
2019-05-23T07:51:52.889Z,100047.08
2019-05-23T07:54:33.165Z,100055.15
2019-05-23T07:57:08.714Z,100054.72
2019-05-23T07:59:40.654Z,100053.39
2019-05-23T08:02:25.971Z,100059.80
2019-05-23T08:04:58.902Z,100056.52
2019-05-23T08:07:34.317Z,100061.59
2019-05-23T08:10:10.056Z,100058.28
2019-05-23T08:12:43.045Z,100061.88
2019-05-23T08:15:15.617Z,100067.00
2019-05-23T08:17:47.733Z,100070.58
2019-05-23T08:20:20.077Z,100063.56
2019-05-23T08:22:52.481Z,100062.05
2019-05-23T08:25:24.312Z,100067.87
2019-05-23T08:27:56.754Z,100066.94
2019-05-23T08:30:29.563Z,100066.45
2019-05-23T08:33:01.513Z,100065.73
2019-05-23T08:35:33.732Z,100071.45
2019-05-23T08:38:06.463Z,100070.56
2019-05-23T08:40:40.143Z,100076.92
2019-05-23T08:43:12.873Z,100074.94
2019-05-23T08:45:45.194Z,100076.41
2019-05-23T08:48:17.233Z,100072.09
2019-05-23T08:50:51.420Z,100079.93
2019-05-23T08:53:23.213Z,100076.06
2019-05-23T08:55:55.861Z,100071.95
2019-05-23T08:58:28.273Z,100070.07
2019-05-23T09:01:00.229Z,100067.58
2019-05-23T09:03:32.199Z,100069.39
2019-05-23T09:06:04.984Z,100065.22
2019-05-23T09:08:38.330Z,100069.50
2019-05-23T09:11:11.589Z,100059.95
2019-05-23T09:13:44.342Z,100052.98
2019-05-23T09:16:16.261Z,100054.47
2019-05-23T09:18:48.852Z,100063.85
2019-05-23T09:21:20.873Z,100059.42
2019-05-23T09:23:53.360Z,100064.72
2019-05-23T09:26:25.415Z,100059.44
2019-05-23T09:28:57.692Z,100071.95
2019-05-23T09:31:30.311Z,100064.39
2019-05-23T09:34:02.321Z,100064.08
2019-05-23T09:36:34.883Z,100065.84
2019-05-23T09:39:09.910Z,100061.56
2019-05-23T09:41:42.192Z,100052.41
2019-05-23T09:44:16.377Z,100056.81
2019-05-23T09:46:48.260Z,100059.65
2019-05-23T09:49:20.557Z,100061.13
2019-05-23T09:51:55.404Z,100058.63
2019-05-23T09:54:26.651Z,100052.83
2019-05-23T09:56:58.685Z,100062.52
2019-05-23T09:59:31.081Z,100064.33
2019-05-23T10:02:02.990Z,100061.69
2019-05-23T10:04:35.221Z,100064.54
2019-05-23T10:07:07.078Z,100064.03
2019-05-23T10:09:39.117Z,100055.33
2019-05-23T10:12:10.936Z,100050.96
2019-05-23T10:14:43.467Z,100063.55
2019-05-23T10:17:15.998Z,100062.10
2019-05-23T10:19:47.960Z,100059.47
2019-05-23T10:22:19.794Z,100063.45
2019-05-23T10:24:51.779Z,100061.18
2019-05-23T10:27:23.659Z,100056.59
2019-05-23T10:29:55.703Z,100052.31
2019-05-23T10:32:27.613Z,100043.33
2019-05-23T10:34:59.989Z,100046.69
2019-05-23T10:37:31.870Z,100046.73
2019-05-23T10:40:04.032Z,100050.70
2019-05-23T10:42:36.786Z,100055.20
2019-05-23T10:45:09.811Z,100053.49
2019-05-23T10:47:41.643Z,100055.38
2019-05-23T10:50:14.138Z,100064.33
2019-05-23T10:52:46.006Z,100061.18
2019-05-23T10:55:17.994Z,100067.58
2019-05-23T10:57:49.860Z,100062.92
2019-05-23T11:00:26.061Z,100060.64
2019-05-23T11:02:58.049Z,100066.34
2019-05-23T11:05:30.206Z,100070.55
2019-05-23T11:08:02.946Z,100062.36
2019-05-23T11:10:37.125Z,100055.20
2019-05-23T11:13:09.489Z,100055.83
2019-05-23T11:15:42.434Z,100070.53
2019-05-23T11:18:14.793Z,100067.70
2019-05-23T11:20:47.725Z,100069.55
2019-05-23T11:23:25.835Z,100078.09
2019-05-23T11:26:00.989Z,100087.41
2019-05-23T11:28:34.808Z,100088.40
2019-05-23T11:31:08.773Z,100098.70
2019-05-23T11:33:40.825Z,100093.61
2019-05-23T11:36:13.338Z,100090.67
2019-05-23T11:38:45.337Z,100079.98
2019-05-23T11:41:17.797Z,100077.91
2019-05-23T11:43:49.771Z,100073.17
2019-05-23T11:46:31.942Z,100101.69
2019-05-23T11:49:05.417Z,100089.77
2019-05-23T11:51:38.494Z,100086.69
2019-05-23T11:54:11.709Z,100085.78
2019-05-23T11:56:44.614Z,100088.23
2019-05-23T11:59:18.284Z,100093.52
2019-05-23T12:02:15.480Z,100095.55
2019-05-23T12:04:47.522Z,100093.80
2019-05-23T12:07:25.132Z,100099.41
2019-05-23T12:09:57.011Z,100104.95
2019-05-23T12:12:29.705Z,100117.70
2019-05-23T12:15:01.757Z,100112.16
2019-05-23T12:17:34.933Z,100113.05
2019-05-23T12:20:08.510Z,100116.70
2019-05-23T12:22:40.906Z,100120.97
2019-05-23T12:25:23.289Z,100116.82
2019-05-23T12:27:49.219Z,100099.86
2019-05-23T12:30:21.413Z,100101.69
2019-05-23T12:32:53.565Z,100108.03
2019-05-23T12:35:25.903Z,100105.09
2019-05-23T12:37:57.755Z,100103.69
2019-05-23T12:40:29.998Z,100102.11
2019-05-23T12:43:02.215Z,100097.01
2019-05-23T12:45:34.021Z,100101.52
2019-05-23T12:48:12.130Z,100100.61
2019-05-23T12:50:46.030Z,100104.21
2019-05-23T12:53:17.894Z,100098.02
2019-05-23T12:55:49.806Z,100097.52
2019-05-23T12:58:23.880Z,100104.66
2019-05-23T13:00:57.156Z,100100.61
2019-05-23T13:03:29.238Z,100103.89
2019-05-23T13:06:01.192Z,100115.70
2019-05-23T13:08:33.169Z,100110.17
2019-05-23T13:11:05.562Z,100117.58
2019-05-23T13:13:37.603Z,100106.70
2019-05-23T13:16:11.086Z,100097.11
2019-05-23T13:18:43.172Z,100088.03
2019-05-23T13:21:15.255Z,100077.63
2019-05-23T13:23:47.229Z,100074.90
2019-05-23T13:26:19.101Z,100080.54
2019-05-23T13:28:51.591Z,100070.99
2019-05-23T13:31:23.631Z,100075.64
2019-05-23T13:33:55.542Z,100080.89
2019-05-23T13:36:27.891Z,100094.48
2019-05-23T13:39:00.166Z,100106.65
2019-05-23T13:41:32.129Z,100109.82
2019-05-23T13:44:05.709Z,100114.77
2019-05-23T13:46:39.925Z,100126.05
2019-05-23T13:49:11.977Z,100126.80
2019-05-23T13:51:45.141Z,100133.27
2019-05-23T13:54:17.254Z,100146.05
2019-05-23T13:56:49.077Z,100138.64
2019-05-23T13:59:21.080Z,100143.28
2019-05-23T14:01:53.688Z,100149.20
2019-05-23T14:04:25.984Z,100157.80
2019-05-23T14:06:58.665Z,100152.31
2019-05-23T14:09:31.553Z,100148.16
2019-05-23T14:14:37.312Z,100134.13
2019-05-23T14:17:27.937Z,100136.28
2019-05-23T14:19:59.892Z,100131.88
2019-05-23T14:22:33.366Z,100141.10
2019-05-23T14:25:06.958Z,100142.73
2019-05-23T14:27:56.117Z,100135.20
2019-05-23T14:30:42.499Z,100138.09
2019-05-23T14:33:42.009Z,100140.25
2019-05-23T14:36:35.755Z,100140.91
2019-05-23T14:39:17.406Z,100141.85
2019-05-23T14:41:55.509Z,100139.02
2019-05-23T14:44:27.425Z,100134.18
2019-05-23T14:47:21.505Z,100124.98
2019-05-23T14:50:12.372Z,100128.61
2019-05-23T14:52:45.113Z,100130.97
2019-05-23T14:55:16.972Z,100126.84
2019-05-23T14:57:49.295Z,100130.47
2019-05-23T15:00:23.236Z,100137.61
2019-05-23T15:02:55.170Z,100134.13
2019-05-23T15:05:27.395Z,100143.58
2019-05-23T15:07:59.513Z,100139.36
2019-05-23T15:10:31.607Z,100145.47
2019-05-23T15:13:03.635Z,100144.44
2019-05-23T15:15:35.586Z,100146.80
2019-05-23T15:18:08.103Z,100150.08
2019-05-23T15:20:39.972Z,100154.06
2019-05-23T15:23:12.213Z,100154.53
2019-05-23T15:25:44.023Z,100161.82
2019-05-23T15:28:16.139Z,100161.61
2019-05-23T15:30:47.968Z,100160.58
2019-05-23T15:33:19.968Z,100158.69
2019-05-23T15:35:52.398Z,100157.44
2019-05-23T15:38:24.359Z,100170.95
2019-05-23T15:40:57.024Z,100176.63
2019-05-23T15:43:29.024Z,100174.27
2019-05-23T15:46:00.815Z,100181.88
2019-05-23T15:48:32.992Z,100179.15
2019-05-23T15:51:05.460Z,100182.98
2019-05-23T15:53:59.271Z,100187.90
2019-05-23T15:56:42.421Z,100192.50
2019-05-23T15:59:27.822Z,100195.62
2019-05-23T16:02:37.269Z,100196.48
2019-05-23T16:05:13.623Z,100194.14
2019-05-23T16:07:46.497Z,100193.67
2019-05-23T16:10:18.491Z,100193.89
2019-05-23T16:12:50.543Z,100197.73
2019-05-23T16:15:23.661Z,100201.38
2019-05-23T16:17:55.576Z,100200.95
2019-05-23T16:20:28.068Z,100208.88
2019-05-23T16:23:00.082Z,100212.08
2019-05-23T16:25:32.329Z,100212.86
2019-05-23T16:28:04.555Z,100221.50
2019-05-23T16:30:37.161Z,100213.14
2019-05-23T16:33:09.205Z,100222.05
2019-05-23T16:35:41.836Z,100223.26
2019-05-23T16:38:13.716Z,100227.02
2019-05-23T16:40:46.067Z,100233.94
2019-05-23T16:43:18.053Z,100234.22
2019-05-23T16:45:50.286Z,100240.45
2019-05-23T16:48:22.231Z,100248.96
2019-05-23T16:50:54.525Z,100253.16
2019-05-23T16:53:27.223Z,100251.89
2019-05-23T16:56:05.230Z,100252.75
2019-05-23T16:58:54.834Z,100253.44
2019-05-23T17:01:56.029Z,100246.52
2019-05-23T17:04:34.485Z,100248.77
2019-05-23T17:07:23.790Z,100237.84
2019-05-23T17:10:08.960Z,100236.87
2019-05-23T17:13:11.298Z,100234.27
2019-05-23T17:16:11.005Z,100235.59
2019-05-23T17:19:04.964Z,100232.26
2019-05-23T17:22:03.644Z,100234.37
2019-05-23T17:24:47.900Z,100238.89
2019-05-23T17:27:37.170Z,100240.22
2019-05-23T17:30:19.376Z,100236.45
2019-05-23T17:32:51.588Z,100233.72
2019-05-23T17:35:24.128Z,100237.92
2019-05-23T17:37:56.076Z,100242.05
2019-05-23T17:40:29.223Z,100245.20
2019-05-23T17:43:01.106Z,100241.83
2019-05-23T17:45:33.528Z,100235.83
2019-05-23T17:48:05.749Z,100242.97
2019-05-23T17:50:37.703Z,100240.81
2019-05-23T17:53:09.495Z,100246.59
2019-05-23T17:55:41.686Z,100249.74
2019-05-23T17:58:13.686Z,100250.92
2019-05-23T18:00:47.219Z,100241.42
2019-05-23T18:03:19.830Z,100243.06
2019-05-23T18:05:52.115Z,100239.14
2019-05-23T18:08:24.868Z,100235.02
2019-05-23T18:10:58.250Z,100226.38
2019-05-23T18:13:30.722Z,100227.84
2019-05-23T18:16:05.545Z,100236.94
2019-05-23T18:18:37.462Z,100227.08
2019-05-23T18:21:09.273Z,100230.23
2019-05-23T18:23:41.324Z,100233.24
2019-05-23T18:26:13.151Z,100232.47
2019-05-23T18:28:45.226Z,100228.36
2019-05-23T18:31:24.059Z,100228.45
2019-05-23T18:33:57.125Z,100232.92
2019-05-23T18:36:30.012Z,100232.28
2019-05-23T18:39:02.212Z,100240.24
2019-05-23T18:41:34.860Z,100250.98
2019-05-23T18:44:09.615Z,100251.77
2019-05-23T18:46:44.920Z,100253.42
2019-05-23T18:49:17.412Z,100250.44
2019-05-23T18:51:49.576Z,100249.80
2019-05-23T18:54:21.953Z,100254.55
2019-05-23T18:56:57.378Z,100257.61
2019-05-23T18:59:29.945Z,100256.92
2019-05-23T19:02:02.243Z,100265.57
2019-05-23T19:04:34.886Z,100266.07
2019-05-23T19:07:08.216Z,100264.74
2019-05-23T19:09:41.331Z,100263.42
2019-05-23T19:12:13.800Z,100263.00
2019-05-23T19:14:46.987Z,100268.50
2019-05-23T19:17:19.425Z,100269.98
2019-05-23T19:19:51.568Z,100273.05
2019-05-23T19:22:24.249Z,100272.36
2019-05-23T19:24:56.508Z,100271.03
2019-05-23T19:27:29.150Z,100274.02
2019-05-23T19:30:01.187Z,100277.66
2019-05-23T19:32:34.774Z,100275.01
2019-05-23T19:35:08.170Z,100275.61
2019-05-23T19:37:42.019Z,100276.94
2019-05-23T19:40:14.765Z,100277.44
2019-05-23T19:42:46.917Z,100285.11
2019-05-23T19:45:19.025Z,100284.75
2019-05-23T19:47:51.927Z,100285.61
2019-05-23T19:50:24.452Z,100293.83
2019-05-23T19:52:56.911Z,100287.53
2019-05-23T19:55:32.329Z,100285.75
2019-05-23T19:58:04.484Z,100287.27
2019-05-23T20:00:36.937Z,100283.92
2019-05-23T20:03:09.443Z,100279.25
2019-05-23T20:05:41.929Z,100279.53
2019-05-23T20:08:14.067Z,100286.84
2019-05-23T20:10:46.490Z,100288.94
2019-05-23T20:13:19.026Z,100292.28
2019-05-23T20:15:51.305Z,100287.75
2019-05-23T20:18:24.306Z,100292.00
2019-05-23T20:20:56.222Z,100289.78
2019-05-23T20:23:28.168Z,100282.80
2019-05-23T20:26:00.492Z,100283.56
2019-05-23T20:28:32.934Z,100286.70
2019-05-23T20:31:06.449Z,100282.09
2019-05-23T20:33:38.295Z,100279.38
2019-05-23T20:36:13.127Z,100277.00
2019-05-23T20:38:46.447Z,100282.23
2019-05-23T20:41:19.428Z,100277.16
2019-05-23T20:43:52.030Z,100270.11
2019-05-23T20:46:24.542Z,100265.64
2019-05-23T20:48:56.756Z,100268.69
2019-05-23T20:51:28.929Z,100271.34
2019-05-23T20:54:00.868Z,100275.58
2019-05-23T20:56:32.837Z,100273.16
2019-05-23T20:59:05.955Z,100276.14
2019-05-23T21:01:41.111Z,100279.52
2019-05-23T21:04:13.289Z,100283.00
2019-05-23T21:06:45.211Z,100291.77
2019-05-23T21:09:17.269Z,100291.77
2019-05-23T21:11:49.090Z,100298.90
2019-05-23T21:14:21.213Z,100304.96
2019-05-23T21:16:53.131Z,100303.14
2019-05-23T21:19:25.175Z,100298.41
2019-05-23T21:21:57.192Z,100302.05
2019-05-23T21:24:30.965Z,100309.27
2019-05-23T21:27:03.078Z,100306.64
2019-05-23T21:29:34.946Z,100304.42
2019-05-23T21:32:07.169Z,100309.16
2019-05-23T21:34:39.214Z,100308.55
2019-05-23T21:37:11.271Z,100311.36
2019-05-23T21:39:43.502Z,100310.17
2019-05-23T21:42:15.776Z,100317.05
2019-05-23T21:44:47.958Z,100310.33
2019-05-23T21:47:19.866Z,100311.37
2019-05-23T21:49:51.987Z,100316.80
2019-05-23T21:52:23.913Z,100322.22
2019-05-23T21:54:56.002Z,100316.81
2019-05-23T21:57:27.964Z,100321.67
2019-05-23T21:59:59.779Z,100322.42
2019-05-23T22:02:35.286Z,100320.89
2019-05-23T22:05:13.985Z,100320.78
2019-05-23T22:07:46.708Z,100323.09
2019-05-23T22:10:19.193Z,100332.91
2019-05-23T22:13:03.350Z,100336.38
2019-05-23T22:15:38.947Z,100333.73
2019-05-23T22:18:10.776Z,100335.05
2019-05-23T22:20:43.196Z,100335.09
2019-05-23T22:23:15.513Z,100343.78
2019-05-23T22:25:47.629Z,100342.70
2019-05-23T22:28:20.091Z,100345.84
2019-05-23T22:30:53.335Z,100346.55
2019-05-23T22:33:27.484Z,100350.64
2019-05-23T22:36:00.603Z,100349.70
2019-05-23T22:38:32.507Z,100341.64
2019-05-23T22:41:04.401Z,100343.46
2019-05-23T22:43:37.750Z,100347.05
2019-05-23T22:46:11.132Z,100345.64
2019-05-23T22:48:43.100Z,100351.89
2019-05-23T22:51:15.252Z,100351.30
2019-05-23T22:53:47.094Z,100348.78
2019-05-23T22:56:19.304Z,100352.05
2019-05-23T22:58:51.288Z,100347.38
2019-05-23T23:01:24.888Z,100344.70
2019-05-23T23:03:56.716Z,100347.72
2019-05-23T23:06:29.294Z,100353.25
2019-05-23T23:09:01.150Z,100353.62
2019-05-23T23:11:33.212Z,100354.48
2019-05-23T23:14:06.107Z,100356.14
2019-05-23T23:16:37.993Z,100351.59
2019-05-23T23:19:09.966Z,100350.98
2019-05-23T23:21:41.982Z,100352.91
2019-05-23T23:24:13.781Z,100353.04
2019-05-23T23:26:45.623Z,100356.77
2019-05-23T23:29:17.747Z,100364.35
2019-05-23T23:31:49.679Z,100365.58
2019-05-23T23:34:21.741Z,100362.97
2019-05-23T23:36:53.634Z,100359.98
2019-05-23T23:39:25.613Z,100357.80
2019-05-23T23:41:57.698Z,100353.83
2019-05-23T23:44:34.492Z,100353.83
2019-05-23T23:47:25.472Z,100344.48
2019-05-23T23:50:14.655Z,100352.66
2019-05-23T23:53:04.525Z,100347.16
2019-05-23T23:55:53.803Z,100344.63
2019-05-23T23:58:25.864Z,100342.33
